sensor_id;sensor_type;location;lat;lon;timestamp;pressure;altitude;pressure_sealevel;temperature;humidity
78483;BME280;67772;50.158;8.658;2023-03-21T00:01:14;100684.56;;;11.29;55.85
78483;BME280;67772;50.158;8.658;2023-03-21T00:03:40;100674.41;;;11.14;56.24
78483;BME280;67772;50.158;8.658;2023-03-21T00:06:09;100672.78;;;11.13;56.43
78483;BME280;67772;50.158;8.658;2023-03-21T00:08:35;100678.38;;;11.12;57.02
78483;BME280;67772;50.158;8.658;2023-03-21T00:11:03;100675.94;;;11.10;56.38
78483;BME280;67772;50.158;8.658;2023-03-21T00:13:29;100667.91;;;11.10;56.81
78483;BME280;67772;50.158;8.658;2023-03-21T00:16:16;100670.78;;;11.20;56.94
78483;BME280;67772;50.158;8.658;2023-03-21T00:18:47;100666.25;;;11.21;56.50
78483;BME280;67772;50.158;8.658;2023-03-21T00:21:14;100666.06;;;11.11;57.20
78483;BME280;67772;50.158;8.658;2023-03-21T00:23:41;100666.06;;;11.11;57.00
78483;BME280;67772;50.158;8.658;2023-03-21T00:26:07;100661.53;;;11.11;56.60
78483;BME280;67772;50.158;8.658;2023-03-21T00:28:37;100657.16;;;11.05;56.97
78483;BME280;67772;50.158;8.658;2023-03-21T00:31:04;100653.59;;;11.00;57.76
78483;BME280;67772;50.158;8.658;2023-03-21T00:33:30;100654.09;;;10.85;57.59
78483;BME280;67772;50.158;8.658;2023-03-21T00:35:56;100656.13;;;10.78;58.68
78483;BME280;67772;50.158;8.658;2023-03-21T00:38:21;100648.44;;;10.82;58.18
78483;BME280;67772;50.158;8.658;2023-03-21T00:40:47;100653.69;;;10.77;58.58
78483;BME280;67772;50.158;8.658;2023-03-21T00:43:14;100646.03;;;10.80;58.12
78483;BME280;67772;50.158;8.658;2023-03-21T00:45:42;100649.66;;;10.91;57.66
78483;BME280;67772;50.158;8.658;2023-03-21T00:48:07;100647.53;;;10.76;58.29
78483;BME280;67772;50.158;8.658;2023-03-21T00:50:32;100646.75;;;10.64;58.87
78483;BME280;67772;50.158;8.658;2023-03-21T00:52:58;100641.38;;;10.47;59.04
78483;BME280;67772;50.158;8.658;2023-03-21T00:55:24;100636.78;;;10.59;58.48
78483;BME280;67772;50.158;8.658;2023-03-21T00:57:49;100633.75;;;10.67;58.47
78483;BME280;67772;50.158;8.658;2023-03-21T01:00:15;100628.19;;;10.69;58.27
78483;BME280;67772;50.158;8.658;2023-03-21T01:02:42;100633.75;;;10.67;58.03
78483;BME280;67772;50.158;8.658;2023-03-21T01:05:23;100624.31;;;10.48;59.05
78483;BME280;67772;50.158;8.658;2023-03-21T01:08:10;100614.88;;;10.29;59.71
78483;BME280;67772;50.158;8.658;2023-03-21T01:10:40;100626.81;;;10.27;59.80
78483;BME280;67772;50.158;8.658;2023-03-21T01:13:07;100617.06;;;10.21;59.74
78483;BME280;67772;50.158;8.658;2023-03-21T01:15:32;100622.19;;;10.11;60.68
78483;BME280;67772;50.158;8.658;2023-03-21T01:17:57;100630.66;;;9.96;61.28
78483;BME280;67772;50.158;8.658;2023-03-21T01:20:22;100623.22;;;9.98;60.98
78483;BME280;67772;50.158;8.658;2023-03-21T01:22:48;100619.66;;;9.93;61.31
78483;BME280;67772;50.158;8.658;2023-03-21T01:25:13;100614.41;;;10.09;60.90
78483;BME280;67772;50.158;8.658;2023-03-21T01:27:38;100622.75;;;10.01;60.97
78483;BME280;67772;50.158;8.658;2023-03-21T01:30:04;100618.94;;;9.97;60.98
78483;BME280;67772;50.158;8.658;2023-03-21T01:32:30;100614.41;;;10.09;60.34
78483;BME280;67772;50.158;8.658;2023-03-21T01:34:55;100611.75;;;10.21;60.14
78483;BME280;67772;50.158;8.658;2023-03-21T01:37:20;100612.28;;;10.34;59.65
78483;BME280;67772;50.158;8.658;2023-03-21T01:39:46;100611.50;;;10.22;59.31
78483;BME280;67772;50.158;8.658;2023-03-21T01:42:13;100609.56;;;10.18;60.26
78483;BME280;67772;50.158;8.658;2023-03-21T01:44:59;100615.81;;;10.23;59.85
78483;BME280;67772;50.158;8.658;2023-03-21T01:47:25;100607.69;;;10.07;59.92
78483;BME280;67772;50.158;8.658;2023-03-21T01:49:54;100601.44;;;10.01;60.63
78483;BME280;67772;50.158;8.658;2023-03-21T01:52:28;100604.44;;;10.16;60.22
78483;BME280;67772;50.158;8.658;2023-03-21T01:54:56;100604.22;;;10.06;60.33
78483;BME280;67772;50.158;8.658;2023-03-21T01:57:32;100604.00;;;10.19;59.03
78483;BME280;67772;50.158;8.658;2023-03-21T02:00:02;100607.59;;;10.13;59.74
78483;BME280;67772;50.158;8.658;2023-03-21T02:02:37;100603.28;;;10.12;59.19
78483;BME280;67772;50.158;8.658;2023-03-21T02:05:26;100602.28;;;9.90;60.02
78483;BME280;67772;50.158;8.658;2023-03-21T02:07:53;100600.88;;;10.11;58.68
78483;BME280;67772;50.158;8.658;2023-03-21T02:10:19;100599.69;;;10.07;58.88
78483;BME280;67772;50.158;8.658;2023-03-21T02:12:45;100591.94;;;10.05;58.94
78483;BME280;67772;50.158;8.658;2023-03-21T02:15:11;100587.16;;;10.07;58.58
78483;BME280;67772;50.158;8.658;2023-03-21T02:20:51;100581.88;;;9.96;59.13
78483;BME280;67772;50.158;8.658;2023-03-21T02:23:35;100577.94;;;9.98;59.02
78483;BME280;67772;50.158;8.658;2023-03-21T02:31:33;100576.22;;;9.80;58.99
78483;BME280;67772;50.158;8.658;2023-03-21T02:36:56;100572.03;;;9.61;59.88
78483;BME280;67772;50.158;8.658;2023-03-21T02:42:19;100567.09;;;9.65;59.50
78483;BME280;67772;50.158;8.658;2023-03-21T02:47:45;100563.59;;;9.53;60.14
78483;BME280;67772;50.158;8.658;2023-03-21T02:50:18;100555.28;;;9.49;60.15
78483;BME280;67772;50.158;8.658;2023-03-21T02:52:48;100557.56;;;9.46;60.04
78483;BME280;67772;50.158;8.658;2023-03-21T02:55:21;100560.94;;;9.30;61.03
78483;BME280;67772;50.158;8.658;2023-03-21T02:57:49;100559.31;;;9.29;61.11
78483;BME280;67772;50.158;8.658;2023-03-21T03:00:18;100560.56;;;9.26;61.20
78483;BME280;67772;50.158;8.658;2023-03-21T03:02:45;100558.72;;;9.27;61.63
78483;BME280;67772;50.158;8.658;2023-03-21T03:05:19;100556.78;;;9.34;61.67
78483;BME280;67772;50.158;8.658;2023-03-21T03:18:53;100559.88;;;9.65;60.61
78483;BME280;67772;50.158;8.658;2023-03-21T03:21:25;100566.38;;;9.58;60.78
78483;BME280;67772;50.158;8.658;2023-03-21T03:24:09;100565.09;;;9.37;61.41
78483;BME280;67772;50.158;8.658;2023-03-21T03:26:44;100560.38;;;9.39;61.61
78483;BME280;67772;50.158;8.658;2023-03-21T03:29:14;100556.78;;;9.34;61.29
78483;BME280;67772;50.158;8.658;2023-03-21T03:31:50;100554.81;;;9.41;61.51
78483;BME280;67772;50.158;8.658;2023-03-21T03:34:21;100551.78;;;9.37;61.16
78483;BME280;67772;50.158;8.658;2023-03-21T03:36:51;100549.81;;;9.33;61.52
78483;BME280;67772;50.158;8.658;2023-03-21T03:39:24;100540.56;;;9.35;62.00
78483;BME280;67772;50.158;8.658;2023-03-21T03:41:58;100544.25;;;9.23;61.72
78483;BME280;67772;50.158;8.658;2023-03-21T03:44:26;100547.50;;;9.25;61.66
78483;BME280;67772;50.158;8.658;2023-03-21T03:47:03;100544.03;;;9.36;61.27
78483;BME280;67772;50.158;8.658;2023-03-21T03:50:42;100542.16;;;9.25;61.78
78483;BME280;67772;50.158;8.658;2023-03-21T03:52:47;100541.34;;;9.24;61.69
78483;BME280;67772;50.158;8.658;2023-03-21T03:55:16;100541.00;;;9.21;61.77
78483;BME280;67772;50.158;8.658;2023-03-21T03:57:43;100539.16;;;9.10;62.34
78483;BME280;67772;50.158;8.658;2023-03-21T04:00:10;100541.69;;;9.05;62.63
78483;BME280;67772;50.158;8.658;2023-03-21T04:02:37;100540.56;;;9.24;62.40
78483;BME280;67772;50.158;8.658;2023-03-21T04:05:03;100540.22;;;9.32;62.12
78483;BME280;67772;50.158;8.658;2023-03-21T04:07:29;100544.63;;;9.38;61.30
78483;BME280;67772;50.158;8.658;2023-03-21T04:09:55;100544.50;;;9.33;61.43
78483;BME280;67772;50.158;8.658;2023-03-21T04:12:20;100542.41;;;9.35;61.72
78483;BME280;67772;50.158;8.658;2023-03-21T04:14:46;100538.94;;;9.46;61.35
78483;BME280;67772;50.158;8.658;2023-03-21T04:17:11;100544.16;;;9.52;61.16
78483;BME280;67772;50.158;8.658;2023-03-21T04:19:36;100531.06;;;9.28;62.08
78483;BME280;67772;50.158;8.658;2023-03-21T04:22:02;100530.38;;;9.21;62.68
78483;BME280;67772;50.158;8.658;2023-03-21T04:24:27;100529.91;;;9.24;61.91
78483;BME280;67772;50.158;8.658;2023-03-21T04:26:57;100527.38;;;9.29;61.91
78483;BME280;67772;50.158;8.658;2023-03-21T04:29:22;100531.06;;;9.28;62.08
78483;BME280;67772;50.158;8.658;2023-03-21T04:31:48;100532.00;;;9.56;60.83
78483;BME280;67772;50.158;8.658;2023-03-21T04:34:14;100529.44;;;9.50;61.46
78483;BME280;67772;50.158;8.658;2023-03-21T04:36:39;100531.16;;;9.56;61.03
78483;BME280;67772;50.158;8.658;2023-03-21T04:39:09;100527.56;;;9.62;60.54
78483;BME280;67772;50.158;8.658;2023-03-21T04:41:38;100530.94;;;9.57;61.13
78483;BME280;67772;50.158;8.658;2023-03-21T04:44:04;100527.91;;;9.65;60.86
78483;BME280;67772;50.158;8.658;2023-03-21T04:46:30;100526.44;;;9.58;60.85
78483;BME280;67772;50.158;8.658;2023-03-21T04:48:55;100525.28;;;9.54;61.48
78483;BME280;67772;50.158;8.658;2023-03-21T04:51:21;100519.22;;;9.70;60.28
78483;BME280;67772;50.158;8.658;2023-03-21T04:53:46;100532.19;;;9.78;60.39
78483;BME280;67772;50.158;8.658;2023-03-21T04:56:14;100530.38;;;9.67;60.54
78483;BME280;67772;50.158;8.658;2023-03-21T04:58:40;100528.50;;;9.56;61.61
78483;BME280;67772;50.158;8.658;2023-03-21T05:01:07;100538.22;;;9.62;61.21
78483;BME280;67772;50.158;8.658;2023-03-21T05:03:32;100542.84;;;9.78;60.23
78483;BME280;67772;50.158;8.658;2023-03-21T05:06:06;100537.56;;;9.55;61.13
78483;BME280;67772;50.158;8.658;2023-03-21T05:08:33;100539.88;;;9.51;60.91
78483;BME280;67772;50.158;8.658;2023-03-21T05:10:59;100537.66;;;9.37;61.50
78483;BME280;67772;50.158;8.658;2023-03-21T05:13:24;100540.09;;;9.27;61.98
78483;BME280;67772;50.158;8.658;2023-03-21T05:15:50;100534.53;;;9.40;61.15
78483;BME280;67772;50.158;8.658;2023-03-21T05:18:15;100537.31;;;9.56;60.71
78483;BME280;67772;50.158;8.658;2023-03-21T05:20:49;100536.84;;;9.48;61.16
78483;BME280;67772;50.158;8.658;2023-03-21T05:23:22;100528.53;;;9.44;61.09
78483;BME280;67772;50.158;8.658;2023-03-21T05:25:48;100525.03;;;9.44;61.12
78483;BME280;67772;50.158;8.658;2023-03-21T05:28:15;100527.59;;;9.39;61.40
78483;BME280;67772;50.158;8.658;2023-03-21T05:30:44;100515.44;;;9.31;61.07
78483;BME280;67772;50.158;8.658;2023-03-21T05:33:10;100522.50;;;9.37;60.84
78483;BME280;67772;50.158;8.658;2023-03-21T05:35:36;100522.84;;;9.29;61.49
78483;BME280;67772;50.158;8.658;2023-03-21T05:38:01;100520.88;;;9.25;61.87
78483;BME280;67772;50.158;8.658;2023-03-21T05:40:27;100518.94;;;9.32;61.52
78483;BME280;67772;50.158;8.658;2023-03-21T05:42:52;100519.63;;;9.39;61.93
78483;BME280;67772;50.158;8.658;2023-03-21T05:45:17;100516.47;;;9.42;61.29
78483;BME280;67772;50.158;8.658;2023-03-21T05:47:43;100519.72;;;9.55;60.90
78483;BME280;67772;50.158;8.658;2023-03-21T05:50:09;100524.56;;;9.58;61.06
78483;BME280;67772;50.158;8.658;2023-03-21T05:52:35;100520.16;;;9.64;61.10
78483;BME280;67772;50.158;8.658;2023-03-21T05:55:01;100511.81;;;9.72;60.84
78483;BME280;67772;50.158;8.658;2023-03-21T05:57:26;100514.97;;;9.69;60.33
78483;BME280;67772;50.158;8.658;2023-03-21T05:59:53;100521.66;;;9.71;61.14
78483;BME280;67772;50.158;8.658;2023-03-21T06:02:18;100518.38;;;10.04;59.49
78483;BME280;67772;50.158;8.658;2023-03-21T06:04:44;100523.16;;;9.79;60.28
78483;BME280;67772;50.158;8.658;2023-03-21T06:07:10;100521.59;;;9.95;60.06
78483;BME280;67772;50.158;8.658;2023-03-21T06:09:35;100518.00;;;10.12;59.96
78483;BME280;67772;50.158;8.658;2023-03-21T06:12:00;100518.00;;;10.12;59.49
78483;BME280;67772;50.158;8.658;2023-03-21T06:14:26;100521.19;;;10.37;58.97
78483;BME280;67772;50.158;8.658;2023-03-21T06:16:51;100520.38;;;10.53;57.95
78483;BME280;67772;50.158;8.658;2023-03-21T06:19:18;100521.06;;;10.60;57.82
78483;BME280;67772;50.158;8.658;2023-03-21T06:21:44;100518.91;;;10.46;58.46
78483;BME280;67772;50.158;8.658;2023-03-21T06:24:09;100535.66;;;10.41;58.40
78483;BME280;67772;50.158;8.658;2023-03-21T06:26:35;100529.06;;;10.32;59.04
78483;BME280;67772;50.158;8.658;2023-03-21T06:29:00;100532.00;;;10.19;59.39
78483;BME280;67772;50.158;8.658;2023-03-21T06:31:26;100531.44;;;10.17;59.73
78483;BME280;67772;50.158;8.658;2023-03-21T06:33:52;100533.03;;;10.30;59.19
78483;BME280;67772;50.158;8.658;2023-03-21T06:36:18;100533.69;;;10.82;57.98
78483;BME280;67772;50.158;8.658;2023-03-21T06:38:43;100535.47;;;11.26;56.06
78483;BME280;67772;50.158;8.658;2023-03-21T06:41:11;100532.22;;;11.57;55.41
78483;BME280;67772;50.158;8.658;2023-03-21T06:43:36;100530.72;;;12.04;53.75
78483;BME280;67772;50.158;8.658;2023-03-21T06:46:02;100524.63;;;12.30;53.06
78483;BME280;67772;50.158;8.658;2023-03-21T06:48:27;100526.72;;;12.50;52.02
78483;BME280;67772;50.158;8.658;2023-03-21T06:50:53;100521.34;;;12.77;51.56
78483;BME280;67772;50.158;8.658;2023-03-21T06:53:20;100524.66;;;12.89;51.50
78483;BME280;67772;50.158;8.658;2023-03-21T06:55:49;100525.59;;;13.36;50.33
78483;BME280;67772;50.158;8.658;2023-03-21T06:58:15;100518.66;;;13.35;50.34
78483;BME280;67772;50.158;8.658;2023-03-21T07:00:40;100520.22;;;13.31;50.47
78483;BME280;67772;50.158;8.658;2023-03-21T07:03:06;100524.59;;;13.47;50.04
78483;BME280;67772;50.158;8.658;2023-03-21T07:05:31;100522.63;;;13.74;48.97
78483;BME280;67772;50.158;8.658;2023-03-21T07:07:56;100524.22;;;13.75;48.91
78483;BME280;67772;50.158;8.658;2023-03-21T07:10:22;100525.94;;;13.96;47.76
78483;BME280;67772;50.158;8.658;2023-03-21T07:12:47;100528.19;;;14.25;47.76
78483;BME280;67772;50.158;8.658;2023-03-21T07:15:12;100521.38;;;15.44;45.00
78483;BME280;67772;50.158;8.658;2023-03-21T07:17:38;100527.44;;;16.49;41.69
78483;BME280;67772;50.158;8.658;2023-03-21T07:20:03;100520.59;;;17.62;39.45
78483;BME280;67772;50.158;8.658;2023-03-21T07:22:33;100531.88;;;17.93;38.51
78483;BME280;67772;50.158;8.658;2023-03-21T07:24:58;100538.69;;;17.00;39.91
78483;BME280;67772;50.158;8.658;2023-03-21T07:27:24;100543.25;;;16.02;42.24
78483;BME280;67772;50.158;8.658;2023-03-21T07:29:49;100550.94;;;15.24;43.65
78483;BME280;67772;50.158;8.658;2023-03-21T07:32:15;100544.44;;;14.75;44.95
78483;BME280;67772;50.158;8.658;2023-03-21T07:34:40;100545.50;;;14.64;45.46
78483;BME280;67772;50.158;8.658;2023-03-21T07:37:06;100542.31;;;14.77;45.75
78483;BME280;67772;50.158;8.658;2023-03-21T07:39:32;100537.19;;;14.80;45.47
78483;BME280;67772;50.158;8.658;2023-03-21T07:41:59;100541.19;;;14.43;46.33
78483;BME280;67772;50.158;8.658;2023-03-21T07:44:25;100549.25;;;13.91;47.74
78483;BME280;67772;50.158;8.658;2023-03-21T07:46:51;100551.09;;;13.85;48.77
78483;BME280;67772;50.158;8.658;2023-03-21T07:49:16;100548.28;;;13.65;49.35
78483;BME280;67772;50.158;8.658;2023-03-21T07:51:41;100543.53;;;13.36;50.28
78483;BME280;67772;50.158;8.658;2023-03-21T07:54:07;100539.56;;;13.06;51.19
78483;BME280;67772;50.158;8.658;2023-03-21T07:56:32;100539.63;;;13.11;51.28
78483;BME280;67772;50.158;8.658;2023-03-21T07:58:57;100541.53;;;13.16;51.54
78483;BME280;67772;50.158;8.658;2023-03-21T08:01:24;100539.84;;;13.10;51.30
78483;BME280;67772;50.158;8.658;2023-03-21T08:03:50;100537.97;;;13.42;50.88
78483;BME280;67772;50.158;8.658;2023-03-21T08:06:20;100539.81;;;13.78;50.01
78483;BME280;67772;50.158;8.658;2023-03-21T08:08:46;100539.88;;;13.98;49.31
78483;BME280;67772;50.158;8.658;2023-03-21T08:11:11;100537.38;;;14.34;48.80
78483;BME280;67772;50.158;8.658;2023-03-21T08:13:37;100529.16;;;14.70;48.16
78483;BME280;67772;50.158;8.658;2023-03-21T08:16:03;100529.97;;;15.21;46.61
78483;BME280;67772;50.158;8.658;2023-03-21T08:18:29;100524.03;;;15.29;46.49
78483;BME280;67772;50.158;8.658;2023-03-21T08:20:55;100526.19;;;15.47;45.10
78483;BME280;67772;50.158;8.658;2023-03-21T08:23:21;100525.66;;;15.40;45.77
78483;BME280;67772;50.158;8.658;2023-03-21T08:25:52;100528.28;;;15.75;45.16
78483;BME280;67772;50.158;8.658;2023-03-21T08:28:18;100526.53;;;16.15;44.04
78483;BME280;67772;50.158;8.658;2023-03-21T08:30:43;100525.31;;;16.41;43.20
78483;BME280;67772;50.158;8.658;2023-03-21T08:33:09;100515.84;;;16.92;42.91
78483;BME280;67772;50.158;8.658;2023-03-21T08:35:34;100515.84;;;16.92;42.98
78483;BME280;67772;50.158;8.658;2023-03-21T08:38:03;100524.63;;;16.69;43.77
78483;BME280;67772;50.158;8.658;2023-03-21T08:40:28;100522.50;;;16.66;43.63
78483;BME280;67772;50.158;8.658;2023-03-21T08:42:54;100528.69;;;16.13;44.59
78483;BME280;67772;50.158;8.658;2023-03-21T08:45:19;100541.09;;;16.04;45.39
78483;BME280;67772;50.158;8.658;2023-03-21T08:47:45;100529.91;;;15.71;45.91
78483;BME280;67772;50.158;8.658;2023-03-21T08:50:13;100545.03;;;15.42;46.16
78483;BME280;67772;50.158;8.658;2023-03-21T08:52:39;100532.94;;;15.45;46.33
78483;BME280;67772;50.158;8.658;2023-03-21T08:55:05;100530.75;;;15.12;46.61
78483;BME280;67772;50.158;8.658;2023-03-21T08:57:31;100534.00;;;14.98;47.55
78483;BME280;67772;50.158;8.658;2023-03-21T08:59:56;100538.56;;;14.78;48.07
78483;BME280;67772;50.158;8.658;2023-03-21T09:02:21;100535.78;;;14.38;48.83
78483;BME280;67772;50.158;8.658;2023-03-21T09:04:47;100536.13;;;14.66;47.68
78483;BME280;67772;50.158;8.658;2023-03-21T09:07:12;100533.13;;;14.48;48.84
78483;BME280;67772;50.158;8.658;2023-03-21T09:09:39;100528.91;;;14.82;47.61
78483;BME280;67772;50.158;8.658;2023-03-21T09:12:06;100531.31;;;14.93;47.14
78483;BME280;67772;50.158;8.658;2023-03-21T09:14:32;100531.03;;;14.95;47.19
78483;BME280;67772;50.158;8.658;2023-03-21T09:16:58;100528.63;;;14.98;46.57
78483;BME280;67772;50.158;8.658;2023-03-21T09:19:24;100533.94;;;14.53;48.10
78483;BME280;67772;50.158;8.658;2023-03-21T09:21:49;100536.94;;;15.02;46.77
78483;BME280;67772;50.158;8.658;2023-03-21T09:24:16;100538.56;;;14.88;46.69
78483;BME280;67772;50.158;8.658;2023-03-21T09:26:42;100532.63;;;14.71;46.74
78483;BME280;67772;50.158;8.658;2023-03-21T09:29:08;100532.13;;;14.84;46.55
78483;BME280;67772;50.158;8.658;2023-03-21T09:31:33;100522.16;;;14.84;46.40
78483;BME280;67772;50.158;8.658;2023-03-21T09:33:59;100529.44;;;14.89;46.39
78483;BME280;67772;50.158;8.658;2023-03-21T09:36:24;100528.63;;;14.88;46.46
78483;BME280;67772;50.158;8.658;2023-03-21T09:38:52;100534.81;;;14.99;45.86
78483;BME280;67772;50.158;8.658;2023-03-21T09:47:26;100536.78;;;14.27;47.90
78483;BME280;67772;50.158;8.658;2023-03-21T09:50:03;100534.06;;;14.21;48.71
78483;BME280;67772;50.158;8.658;2023-03-21T09:52:43;100535.22;;;14.36;48.08
78483;BME280;67772;50.158;8.658;2023-03-21T09:55:15;100526.81;;;14.12;48.75
78483;BME280;67772;50.158;8.658;2023-03-21T09:57:46;100528.28;;;14.55;48.14
78483;BME280;67772;50.158;8.658;2023-03-21T10:00:37;100531.53;;;14.52;47.57
78483;BME280;67772;50.158;8.658;2023-03-21T10:03:12;100525.66;;;14.80;46.63
78483;BME280;67772;50.158;8.658;2023-03-21T10:05:42;100532.09;;;15.29;45.80
78483;BME280;67772;50.158;8.658;2023-03-21T10:08:24;100527.78;;;15.33;46.46
78483;BME280;67772;50.158;8.658;2023-03-21T10:11:02;100524.22;;;15.83;45.33
78483;BME280;67772;50.158;8.658;2023-03-21T10:13:34;100527.09;;;16.07;44.35
78483;BME280;67772;50.158;8.658;2023-03-21T10:16:09;100519.19;;;16.30;43.54
78483;BME280;67772;50.158;8.658;2023-03-21T10:18:40;100517.50;;;16.39;43.99
78483;BME280;67772;50.158;8.658;2023-03-21T10:21:06;100517.84;;;16.33;43.58
78483;BME280;67772;50.158;8.658;2023-03-21T10:23:32;100520.44;;;16.48;43.32
78483;BME280;67772;50.158;8.658;2023-03-21T10:26:01;100516.59;;;16.15;44.18
78483;BME280;67772;50.158;8.658;2023-03-21T10:28:36;100510.06;;;16.26;44.46
78483;BME280;67772;50.158;8.658;2023-03-21T10:31:04;100514.66;;;16.21;44.79
78483;BME280;67772;50.158;8.658;2023-03-21T10:33:34;100520.00;;;15.52;46.59
78483;BME280;67772;50.158;8.658;2023-03-21T10:36:04;100513.28;;;15.49;45.84
78483;BME280;67772;50.158;8.658;2023-03-21T10:38:30;100510.63;;;15.44;46.37
78483;BME280;67772;50.158;8.658;2023-03-21T10:40:56;100512.75;;;15.52;46.68
78483;BME280;67772;50.158;8.658;2023-03-21T10:45:50;100512.78;;;15.42;46.63
78483;BME280;67772;50.158;8.658;2023-03-21T10:48:16;100516.25;;;15.23;47.21
78483;BME280;67772;50.158;8.658;2023-03-21T10:50:46;100518.94;;;15.23;47.62
78483;BME280;67772;50.158;8.658;2023-03-21T10:53:17;100518.94;;;15.18;46.94
78483;BME280;67772;50.158;8.658;2023-03-21T10:55:46;100522.44;;;14.68;48.92
78483;BME280;67772;50.158;8.658;2023-03-21T10:58:15;100520.25;;;14.60;50.53
78483;BME280;67772;50.158;8.658;2023-03-21T11:00:43;100522.41;;;14.58;51.06
78483;BME280;67772;50.158;8.658;2023-03-21T11:03:22;100529.09;;;14.55;52.06
78483;BME280;67772;50.158;8.658;2023-03-21T11:05:54;100520.25;;;14.50;52.34
78483;BME280;67772;50.158;8.658;2023-03-21T11:08:20;100525.91;;;14.58;53.09
78483;BME280;67772;50.158;8.658;2023-03-21T11:11:06;100521.31;;;14.54;53.73
78483;BME280;67772;50.158;8.658;2023-03-21T11:13:39;100518.25;;;14.15;55.63
78483;BME280;67772;50.158;8.658;2023-03-21T11:16:18;100517.13;;;14.01;56.82
78483;BME280;67772;50.158;8.658;2023-03-21T11:18:48;100521.56;;;13.80;59.54
78483;BME280;67772;50.158;8.658;2023-03-21T11:21:14;100521.56;;;13.80;58.98
78483;BME280;67772;50.158;8.658;2023-03-21T11:23:42;100514.03;;;13.72;58.26
78483;BME280;67772;50.158;8.658;2023-03-21T11:26:14;100515.28;;;13.55;59.50
78483;BME280;67772;50.158;8.658;2023-03-21T11:28:41;100511.19;;;13.47;61.51
78483;BME280;67772;50.158;8.658;2023-03-21T11:31:09;100517.56;;;13.83;60.73
78483;BME280;67772;50.158;8.658;2023-03-21T11:33:41;100511.38;;;13.82;59.98
78483;BME280;67772;50.158;8.658;2023-03-21T11:38:53;100508.97;;;13.76;59.87
78483;BME280;67772;50.158;8.658;2023-03-21T11:41:28;100511.44;;;13.87;58.24
78483;BME280;67772;50.158;8.658;2023-03-21T11:43:53;100512.47;;;13.81;58.28
78483;BME280;67772;50.158;8.658;2023-03-21T11:46:30;100512.41;;;13.71;59.76
78483;BME280;67772;50.158;8.658;2023-03-21T11:48:57;100502.25;;;13.73;59.90
78483;BME280;67772;50.158;8.658;2023-03-21T11:56:41;100498.13;;;13.56;61.05
78483;BME280;67772;50.158;8.658;2023-03-21T12:07:02;100496.88;;;13.73;62.09
78483;BME280;67772;50.158;8.658;2023-03-21T12:10:07;100492.28;;;13.64;64.22
78483;BME280;67772;50.158;8.658;2023-03-21T12:13:40;100493.69;;;13.76;63.00
78483;BME280;67772;50.158;8.658;2023-03-21T12:21:25;100472.53;;;13.85;61.11
78483;BME280;67772;50.158;8.658;2023-03-21T12:24:14;100467.78;;;14.12;60.45
78483;BME280;67772;50.158;8.658;2023-03-21T12:29:28;100467.09;;;14.37;59.26
78483;BME280;67772;50.158;8.658;2023-03-21T12:39:54;100442.41;;;14.75;58.05
78483;BME280;67772;50.158;8.658;2023-03-21T12:45:38;100430.53;;;14.20;59.79
78483;BME280;67772;50.158;8.658;2023-03-21T12:50:53;100432.44;;;13.53;62.51
78483;BME280;67772;50.158;8.658;2023-03-21T12:56:09;100420.38;;;13.51;62.48
78483;BME280;67772;50.158;8.658;2023-03-21T13:01:28;100427.56;;;13.45;63.42
78483;BME280;67772;50.158;8.658;2023-03-21T13:06:52;100425.22;;;13.54;63.37
78483;BME280;67772;50.158;8.658;2023-03-21T13:09:36;100412.41;;;13.61;63.36
78483;BME280;67772;50.158;8.658;2023-03-21T13:12:12;100417.44;;;13.52;62.02
78483;BME280;67772;50.158;8.658;2023-03-21T13:15:04;100416.84;;;13.45;62.74
78483;BME280;67772;50.158;8.658;2023-03-21T13:17:37;100413.06;;;13.36;63.11
78483;BME280;67772;50.158;8.658;2023-03-21T13:20:21;100409.50;;;13.15;65.75
78483;BME280;67772;50.158;8.658;2023-03-21T13:22:50;100408.50;;;12.95;65.78
78483;BME280;67772;50.158;8.658;2023-03-21T13:25:20;100409.50;;;13.15;64.04
78483;BME280;67772;50.158;8.658;2023-03-21T13:27:53;100413.09;;;12.99;65.70
78483;BME280;67772;50.158;8.658;2023-03-21T13:30:22;100400.19;;;12.91;64.32
78483;BME280;67772;50.158;8.658;2023-03-21T13:32:54;100387.84;;;12.90;64.27
78483;BME280;67772;50.158;8.658;2023-03-21T13:38:05;100393.00;;;12.97;66.71
78483;BME280;67772;50.158;8.658;2023-03-21T13:40:43;100400.53;;;13.00;65.93
78483;BME280;67772;50.158;8.658;2023-03-21T13:46:04;100402.91;;;12.96;64.86
78483;BME280;67772;50.158;8.658;2023-03-21T13:48:40;100394.03;;;12.91;66.35
78483;BME280;67772;50.158;8.658;2023-03-21T13:51:06;100398.63;;;13.00;65.43
78483;BME280;67772;50.158;8.658;2023-03-21T13:53:35;100384.34;;;12.85;66.26
78483;BME280;67772;50.158;8.658;2023-03-21T13:56:19;100389.16;;;12.83;66.17
78483;BME280;67772;50.158;8.658;2023-03-21T14:03:49;100375.69;;;12.73;67.32
78483;BME280;67772;50.158;8.658;2023-03-21T14:06:21;100372.06;;;12.47;67.82
78483;BME280;67772;50.158;8.658;2023-03-21T14:08:48;100371.69;;;12.70;66.74
78483;BME280;67772;50.158;8.658;2023-03-21T14:11:17;100367.72;;;12.78;65.23
78483;BME280;67772;50.158;8.658;2023-03-21T14:13:43;100363.53;;;12.92;66.45
78483;BME280;67772;50.158;8.658;2023-03-21T14:16:19;100372.53;;;12.81;65.70
78483;BME280;67772;50.158;8.658;2023-03-21T14:18:55;100360.63;;;12.62;66.31
78483;BME280;67772;50.158;8.658;2023-03-21T14:21:26;100350.69;;;12.57;66.44
78483;BME280;67772;50.158;8.658;2023-03-21T14:24:04;100353.47;;;12.35;66.87
78483;BME280;67772;50.158;8.658;2023-03-21T14:26:36;100348.19;;;12.40;67.98
78483;BME280;67772;50.158;8.658;2023-03-21T14:29:05;100352.53;;;12.52;68.32
78483;BME280;67772;50.158;8.658;2023-03-21T14:31:32;100342.50;;;12.69;66.28
78483;BME280;67772;50.158;8.658;2023-03-21T14:33:58;100341.03;;;12.51;67.33
78483;BME280;67772;50.158;8.658;2023-03-21T14:36:28;100341.41;;;12.65;66.99